Tanglewood Acres, Colorado
Current Conditions -  °F | °C
As of 7:55 PM on Thursday 27 Nov 2014 (Local Time) from K1V6 Reporting Station
Clear Clear  
Wind Chill: 52°   Ceiling: Unl
Heat Index: 52°   Visibility: 10mi
Dew Point: 18°   Wind: 7mph
Humidity: 26%   Direction: 280°W
Pressure: 30.16"   Gusts: NA
Location:  38.1037°N, 105.445°W
Report Text: K1V6 280255Z AUTO 28006KT 10SM CLR 11/M08 A3016 RMK AO2
Loading
Personal Weather Stations






























Interactive Weather Map New forecast layout! Learn more

10-Day Weather Forecast

Advertisements
Track Severe Weather on mobile